Huvudsida
METAR-TAF:

METAR-TAF

Flygplatser :

Mexiko Citys internationella flygplats

Mexico City, Mexiko

latitud: 19-26N, longitud: 099-06W, höjd: 2238 m

Aktuellt väderrapport

Denna rapport gjordes för 1 timme och 9 minuter sedan, klockan 05:48 UTC
Vind 10 kt från nord/nordväst
Temperatur 17°C
Fuktighet 15%
Tryck 1029 hPa
Sikt: 19.3 km
Klar himmel

METAR: MMMX 260548Z 33010KT 12SM SKC 17/M10 A3040 NOSIG RMK SLP106 52005 900

Tid: 00:57 (06:57 UTC)

Väderprognos

Denna rapport gjordes för 2 timmar och 14 minuter sedan, klockan 04:43 UTC
Prognos gäller från 26 kl. 06 UTC till 27 kl. 12 UTC
Vind 5 kt från nord/nordost
Sikt: 10 km
Klar himmel
Från 26 kl. 1700 UTC
Vind 12 kt från ost
Sikt: 10 km
Klar himmel
Från 27 kl. 0300 UTC
Vind 5 kt från nord/nordost
Sikt: 10 km
Klar himmel

TAF: MMMX 260443Z 2606/2712 02005KT P6SM SKC TX28/2621Z TN13/2612Z FM261700 08012KT P6SM SKC FM270300 03005KT P6SM SKC

Aktuella väderrapporter och prognoser från 4000 flygplatser (METAR- och TAF-rapporter).

De tillgängliga stationerna syns som gula och röda prickar på kartan.

För musen över prickarna för att se namnen på stationerna.

Klicka sedan för att få väderrapporter och prognoser.

För att ändra kartan: Klicka på de gröna knapparna med ett svart kors på för att zooma in; den gröna knappen med ett streck på för att zooma ut; eller på de gröna pilarna för angränsande kartor.


METAR-TAF: